createdAt,value
2023-04-15T00:00:00.459Z,90.69
2023-04-15T00:02:29.638Z,90.63
2023-04-15T00:04:57.681Z,90.04
2023-04-15T00:07:25.636Z,89.69
2023-04-15T00:09:55.337Z,89.13
2023-04-15T00:12:24.287Z,88.87
2023-04-15T00:14:52.302Z,88.78
2023-04-15T00:17:20.432Z,88.60
2023-04-15T00:19:48.443Z,88.75
2023-04-15T00:22:17.284Z,88.78
2023-04-15T00:24:45.282Z,88.56
2023-04-15T00:27:13.540Z,88.90
2023-04-15T00:29:41.916Z,89.22
2023-04-15T00:32:09.929Z,89.72
2023-04-15T00:34:37.919Z,89.96
2023-04-15T00:37:05.831Z,90.32
2023-04-15T00:39:34.256Z,90.48
2023-04-15T00:42:05.033Z,91.11
2023-04-15T00:44:33.752Z,91.69
2023-04-15T00:47:04.983Z,91.65
2023-04-15T00:49:33.296Z,91.74
2023-04-15T00:52:04.358Z,92.46
2023-04-15T00:54:32.400Z,92.11
2023-04-15T00:57:00.761Z,92.14
2023-04-15T00:59:29.203Z,92.42
2023-04-15T01:01:57.355Z,92.48
2023-04-15T01:04:26.293Z,93.48
2023-04-15T01:06:54.379Z,92.99
2023-04-15T01:09:22.387Z,92.33
2023-04-15T01:11:52.729Z,92.37
2023-04-15T01:14:21.422Z,92.50
2023-04-15T01:16:49.445Z,92.50
2023-04-15T01:19:18.284Z,92.57
2023-04-15T01:21:47.093Z,92.70
2023-04-15T01:24:18.669Z,92.71
2023-04-15T01:26:47.452Z,92.83
2023-04-15T01:29:15.691Z,92.96
2023-04-15T01:31:55.111Z,93.22
2023-04-15T01:34:23.430Z,93.56
2023-04-15T01:36:55.250Z,93.82
2023-04-15T01:39:23.555Z,93.82
2023-04-15T01:41:51.447Z,93.84
2023-04-15T01:44:19.319Z,93.82
2023-04-15T01:46:48.513Z,94.31
2023-04-15T01:49:17.106Z,94.81
2023-04-15T01:51:44.954Z,94.73
2023-04-15T01:54:14.339Z,94.74
2023-04-15T01:56:42.434Z,93.80
2023-04-15T01:59:11.084Z,93.24
2023-04-15T02:01:39.763Z,92.85
2023-04-15T02:04:08.443Z,92.33
2023-04-15T02:06:36.503Z,92.04
2023-04-15T02:09:04.451Z,92.18
2023-04-15T02:11:32.549Z,92.45
2023-04-15T02:14:00.586Z,92.01
2023-04-15T02:16:28.571Z,92.24
2023-04-15T02:18:56.520Z,91.25
2023-04-15T02:21:26.876Z,90.49
2023-04-15T02:23:54.731Z,90.45
2023-04-15T02:26:23.009Z,90.72
2023-04-15T02:28:53.845Z,90.49
2023-04-15T02:31:21.881Z,90.47
2023-04-15T02:33:50.296Z,90.34
2023-04-15T02:36:18.367Z,90.33
2023-04-15T02:38:46.397Z,90.69
2023-04-15T02:41:15.284Z,91.30
2023-04-15T02:43:44.187Z,91.91
2023-04-15T02:46:14.875Z,92.22
2023-04-15T02:48:43.180Z,92.58
2023-04-15T02:51:22.987Z,92.85
2023-04-15T02:53:51.349Z,93.17
2023-04-15T02:56:20.000Z,93.53
2023-04-15T02:58:50.745Z,94.36
2023-04-15T03:01:19.333Z,94.14
2023-04-15T03:03:47.810Z,94.45
2023-04-15T03:06:15.832Z,94.15
2023-04-15T03:08:43.846Z,94.36
2023-04-15T03:11:15.510Z,94.90
2023-04-15T03:13:43.552Z,94.61
2023-04-15T03:16:21.188Z,95.62
2023-04-15T03:18:49.396Z,94.99
2023-04-15T03:21:17.628Z,94.92
2023-04-15T03:23:48.681Z,95.15
2023-04-15T03:26:30.578Z,95.04
2023-04-15T03:29:03.669Z,95.15
2023-04-15T03:31:31.841Z,94.99
2023-04-15T03:33:59.890Z,95.09
2023-04-15T03:36:34.658Z,95.27
2023-04-15T03:39:03.348Z,95.77
2023-04-15T03:41:32.873Z,96.11
2023-04-15T03:44:01.120Z,96.01
2023-04-15T03:46:29.174Z,96.42
2023-04-15T03:48:57.093Z,96.81
2023-04-15T03:51:24.981Z,96.31
2023-04-15T03:53:52.841Z,96.52
2023-04-15T03:56:21.095Z,96.29
2023-04-15T03:58:49.006Z,95.99
2023-04-15T04:01:16.854Z,96.01
2023-04-15T04:03:44.894Z,96.45
2023-04-15T04:06:13.071Z,96.52
2023-04-15T04:08:41.000Z,96.72
2023-04-15T04:11:08.940Z,97.11
2023-04-15T04:13:36.998Z,97.01
2023-04-15T04:16:05.425Z,97.16
2023-04-15T04:18:33.897Z,96.98
2023-04-15T04:21:02.182Z,96.94
2023-04-15T04:23:30.513Z,97.32
2023-04-15T04:25:58.362Z,98.07
2023-04-15T04:28:26.231Z,97.92
2023-04-15T04:30:54.393Z,97.21
2023-04-15T04:33:22.600Z,97.20
2023-04-15T04:35:50.481Z,97.11
2023-04-15T04:38:18.290Z,96.63
2023-04-15T04:40:46.709Z,96.34
2023-04-15T04:43:15.973Z,96.37
2023-04-15T04:45:44.028Z,96.28
2023-04-15T04:48:12.008Z,95.75
2023-04-15T04:50:40.080Z,95.33
2023-04-15T04:53:08.130Z,95.30
2023-04-15T04:55:38.623Z,95.23
2023-04-15T04:58:07.110Z,94.77
2023-04-15T05:00:35.071Z,94.61
2023-04-15T05:03:03.066Z,94.64
2023-04-15T05:05:31.493Z,94.53
2023-04-15T05:07:59.410Z,94.50
2023-04-15T05:10:27.275Z,94.75
2023-04-15T05:12:55.512Z,95.78
2023-04-15T05:15:23.390Z,95.15
2023-04-15T05:17:51.873Z,94.66
2023-04-15T05:20:19.991Z,94.66
2023-04-15T05:22:48.038Z,94.48
2023-04-15T05:25:16.413Z,93.76
2023-04-15T05:27:44.451Z,93.41
2023-04-15T05:30:13.835Z,93.35
2023-04-15T05:32:42.058Z,93.03
2023-04-15T05:35:10.111Z,92.27
2023-04-15T05:37:38.034Z,91.86
2023-04-15T05:40:06.719Z,91.86
2023-04-15T05:42:35.845Z,91.93
2023-04-15T05:45:05.731Z,91.81
2023-04-15T05:47:54.407Z,92.15
2023-04-15T05:50:22.390Z,91.98
2023-04-15T05:52:50.304Z,91.92
2023-04-15T05:55:18.211Z,91.98
2023-04-15T05:57:46.501Z,92.00
2023-04-15T06:00:15.503Z,92.07
2023-04-15T06:02:43.819Z,91.95
2023-04-15T06:05:12.094Z,91.84
2023-04-15T06:07:40.205Z,91.95
2023-04-15T06:10:08.956Z,92.11
2023-04-15T06:12:37.082Z,92.31
2023-04-15T06:15:06.711Z,92.28
2023-04-15T06:17:34.579Z,92.21
2023-04-15T06:20:02.454Z,91.93
2023-04-15T06:22:30.489Z,91.71
2023-04-15T06:24:58.584Z,91.38
2023-04-15T06:27:26.516Z,91.30
2023-04-15T06:29:54.481Z,91.28
2023-04-15T06:32:22.713Z,91.45
2023-04-15T06:34:50.733Z,91.58
2023-04-15T06:37:18.624Z,91.50
2023-04-15T06:39:46.481Z,91.27
2023-04-15T06:42:14.562Z,91.09
2023-04-15T06:44:42.589Z,90.71
2023-04-15T06:47:10.482Z,88.35
2023-04-15T06:49:38.668Z,85.19
2023-04-15T06:52:06.711Z,83.10
2023-04-15T06:54:34.836Z,82.65
2023-04-15T06:57:02.906Z,82.30
2023-04-15T06:59:31.309Z,80.77
2023-04-15T07:01:59.526Z,79.30
2023-04-15T07:04:28.012Z,77.92
2023-04-15T07:06:57.021Z,77.26
2023-04-15T07:09:25.725Z,76.63
2023-04-15T07:11:53.684Z,76.47
2023-04-15T07:14:21.684Z,76.38
2023-04-15T07:16:49.690Z,76.46
2023-04-15T07:19:17.562Z,75.69
2023-04-15T07:21:45.465Z,76.42
2023-04-15T07:24:16.896Z,75.52
2023-04-15T07:26:45.313Z,75.01
2023-04-15T07:29:13.364Z,75.20
2023-04-15T07:31:42.382Z,75.18
2023-04-15T07:34:10.912Z,74.32
2023-04-15T07:36:38.814Z,74.64
2023-04-15T07:39:06.841Z,73.77
2023-04-15T07:41:35.256Z,72.83
2023-04-15T07:44:03.164Z,72.78
2023-04-15T07:46:31.294Z,72.95
2023-04-15T07:48:59.370Z,72.91
2023-04-15T07:51:27.394Z,73.16
2023-04-15T07:53:55.477Z,72.90
2023-04-15T07:56:23.367Z,72.66
2023-04-15T07:58:51.743Z,72.46
2023-04-15T08:01:19.930Z,71.79
2023-04-15T08:03:48.668Z,70.99
2023-04-15T08:06:16.765Z,71.66
2023-04-15T08:08:44.788Z,71.97
2023-04-15T08:11:13.635Z,72.28
2023-04-15T08:13:41.747Z,72.69
2023-04-15T08:16:19.397Z,73.45
2023-04-15T08:18:48.750Z,73.43
2023-04-15T08:21:17.868Z,72.01
2023-04-15T08:23:48.565Z,70.35
2023-04-15T08:26:17.718Z,70.29
2023-04-15T08:28:47.109Z,70.04
2023-04-15T08:31:16.686Z,70.49
2023-04-15T08:33:45.091Z,69.76
2023-04-15T08:36:14.103Z,69.50
2023-04-15T08:38:42.374Z,69.13
2023-04-15T08:41:39.626Z,69.65
2023-04-15T08:44:07.719Z,69.87
2023-04-15T08:46:35.995Z,69.95
2023-04-15T08:49:05.315Z,69.58
2023-04-15T08:51:34.331Z,69.92
2023-04-15T08:54:03.623Z,69.20
2023-04-15T08:56:33.248Z,68.24
2023-04-15T08:59:02.635Z,67.97
2023-04-15T09:01:32.292Z,65.62
2023-04-15T09:04:08.514Z,65.83
2023-04-15T09:06:36.890Z,66.90
2023-04-15T09:09:12.430Z,66.67
2023-04-15T09:11:40.549Z,65.92
2023-04-15T09:14:08.572Z,65.01
2023-04-15T09:16:59.622Z,63.91
2023-04-15T09:19:42.175Z,63.03
2023-04-15T09:22:15.555Z,63.23
2023-04-15T09:24:43.812Z,63.15
2023-04-15T09:27:11.882Z,63.16
2023-04-15T09:29:42.681Z,62.30
2023-04-15T09:32:12.588Z,61.62
2023-04-15T09:34:40.635Z,60.47
2023-04-15T09:37:11.159Z,60.21
2023-04-15T09:39:50.153Z,60.48
2023-04-15T09:42:24.774Z,60.44
2023-04-15T09:44:53.265Z,60.75
2023-04-15T09:47:29.395Z,59.55
2023-04-15T09:50:01.358Z,58.92
2023-04-15T09:52:30.340Z,56.46
2023-04-15T09:54:59.498Z,56.01
2023-04-15T09:57:38.153Z,56.00
2023-04-15T10:00:08.580Z,55.56
2023-04-15T10:02:39.998Z,56.44
2023-04-15T10:05:11.024Z,56.03
2023-04-15T10:07:41.399Z,55.95
2023-04-15T10:10:11.013Z,56.14
2023-04-15T10:12:41.750Z,56.02
2023-04-15T10:15:17.444Z,56.29
2023-04-15T10:17:46.352Z,55.77
2023-04-15T10:20:17.777Z,56.42
2023-04-15T10:22:46.877Z,55.80
2023-04-15T10:25:16.635Z,53.20
2023-04-15T10:27:45.551Z,53.32
2023-04-15T10:30:13.866Z,53.98
2023-04-15T10:32:42.663Z,53.08
2023-04-15T10:35:12.020Z,52.36
2023-04-15T10:37:40.132Z,51.61
2023-04-15T10:40:31.909Z,51.97
2023-04-15T10:43:03.949Z,52.44
2023-04-15T10:45:37.979Z,52.93
2023-04-15T10:48:09.127Z,51.11
2023-04-15T10:50:37.873Z,50.10
2023-04-15T10:53:06.032Z,50.31
2023-04-15T10:55:34.812Z,50.56
2023-04-15T10:58:03.356Z,51.51
2023-04-15T11:00:33.096Z,52.85
2023-04-15T11:03:10.544Z,52.81
2023-04-15T11:05:41.734Z,52.61
2023-04-15T11:08:11.454Z,53.89
2023-04-15T11:10:39.456Z,53.46
2023-04-15T11:13:10.284Z,52.26
2023-04-15T11:15:38.891Z,52.53
2023-04-15T11:18:17.073Z,53.81
2023-04-15T11:20:59.735Z,52.97
2023-04-15T11:23:37.630Z,52.19
2023-04-15T11:26:12.435Z,51.60
2023-04-15T11:28:44.922Z,51.92
2023-04-15T11:31:20.495Z,50.39
2023-04-15T11:33:59.662Z,50.34
2023-04-15T11:36:29.820Z,49.99
2023-04-15T11:38:59.918Z,49.12
2023-04-15T11:41:28.814Z,49.28
2023-04-15T11:43:59.816Z,49.60
2023-04-15T11:46:34.218Z,50.25
2023-04-15T11:49:02.114Z,49.99
2023-04-15T11:51:34.655Z,48.94
2023-04-15T11:54:03.967Z,49.18
2023-04-15T11:56:32.390Z,47.97
2023-04-15T11:59:00.353Z,46.87
2023-04-15T12:01:36.541Z,47.79
2023-04-15T12:04:13.014Z,47.85
2023-04-15T12:06:41.739Z,48.59
2023-04-15T12:09:14.503Z,48.19
2023-04-15T12:11:50.199Z,48.54
2023-04-15T12:14:32.657Z,48.35
2023-04-15T12:17:03.147Z,48.07
2023-04-15T12:19:40.196Z,47.65
2023-04-15T12:22:12.845Z,45.75
2023-04-15T12:24:44.362Z,46.29
2023-04-15T12:27:13.480Z,46.92
2023-04-15T12:29:54.249Z,47.65
2023-04-15T12:32:23.157Z,47.13
2023-04-15T12:34:53.559Z,47.14
2023-04-15T12:37:22.429Z,46.60
2023-04-15T12:39:51.040Z,47.11
2023-04-15T12:42:19.708Z,48.00
2023-04-15T12:44:48.089Z,48.48
2023-04-15T12:47:16.312Z,48.84
2023-04-15T12:49:44.456Z,49.05
2023-04-15T12:52:15.337Z,48.01
2023-04-15T12:54:43.350Z,47.37
2023-04-15T12:57:11.331Z,47.06
2023-04-15T12:59:39.341Z,45.37
2023-04-15T13:02:08.089Z,44.26
2023-04-15T13:04:36.192Z,44.83
2023-04-15T13:07:04.389Z,45.25
2023-04-15T13:09:32.582Z,45.96
2023-04-15T13:12:01.403Z,44.87
2023-04-15T13:14:29.324Z,44.88
2023-04-15T13:16:58.124Z,45.19
2023-04-15T13:19:26.750Z,44.58
2023-04-15T13:21:54.703Z,44.71
2023-04-15T13:24:22.642Z,44.76
2023-04-15T13:26:50.681Z,45.16
2023-04-15T13:29:18.780Z,44.35
2023-04-15T13:31:46.774Z,44.83
2023-04-15T13:34:14.774Z,45.01
2023-04-15T13:36:43.991Z,45.55
2023-04-15T13:39:11.994Z,44.52
2023-04-15T13:41:41.071Z,45.60
2023-04-15T13:44:08.988Z,45.44
2023-04-15T13:46:37.945Z,44.17
2023-04-15T13:49:06.201Z,43.09
2023-04-15T13:51:36.479Z,42.55
2023-04-15T13:54:04.554Z,42.71
2023-04-15T13:56:32.696Z,44.00
2023-04-15T13:59:02.478Z,43.09
2023-04-15T14:01:30.599Z,43.02
2023-04-15T14:03:58.756Z,42.78
2023-04-15T14:06:28.114Z,43.30
2023-04-15T14:08:56.064Z,43.63
2023-04-15T14:11:24.030Z,44.13
2023-04-15T14:13:51.903Z,44.75
2023-04-15T14:16:19.787Z,45.43
2023-04-15T14:18:47.776Z,45.56
2023-04-15T14:21:15.804Z,45.98
2023-04-15T14:23:43.882Z,45.71
2023-04-15T14:26:11.974Z,45.89
2023-04-15T14:28:39.961Z,45.25
2023-04-15T14:31:11.162Z,44.91
2023-04-15T14:33:39.303Z,44.65
2023-04-15T14:36:09.245Z,45.41
2023-04-15T14:38:38.762Z,45.67
2023-04-15T14:41:08.162Z,46.39
2023-04-15T14:43:36.742Z,45.94
2023-04-15T14:46:04.920Z,46.43
2023-04-15T14:48:33.249Z,46.31
2023-04-15T14:51:01.234Z,46.62
2023-04-15T14:53:29.554Z,46.93
2023-04-15T14:55:57.645Z,47.39
2023-04-15T14:58:25.729Z,48.40
2023-04-15T15:00:53.608Z,48.89
2023-04-15T15:03:21.786Z,49.92
2023-04-15T15:05:49.868Z,50.57
2023-04-15T15:08:17.885Z,51.15
2023-04-15T15:10:49.080Z,51.67
2023-04-15T15:13:18.982Z,52.24
2023-04-15T15:15:49.323Z,52.71
2023-04-15T15:18:19.396Z,52.88
2023-04-15T15:20:47.853Z,52.88
2023-04-15T15:23:18.607Z,52.62
2023-04-15T15:25:47.323Z,52.24
2023-04-15T15:28:15.315Z,52.46
2023-04-15T15:30:43.189Z,52.61
2023-04-15T15:33:11.163Z,52.96
2023-04-15T15:35:39.709Z,52.89
2023-04-15T15:38:07.816Z,53.10
2023-04-15T15:40:35.965Z,53.40
2023-04-15T15:43:04.543Z,53.58
2023-04-15T15:45:32.662Z,53.31
2023-04-15T15:48:02.109Z,53.47
2023-04-15T15:50:30.335Z,53.80
2023-04-15T15:52:58.975Z,54.09
2023-04-15T15:55:27.433Z,54.47
2023-04-15T15:57:55.600Z,54.56
2023-04-15T16:00:23.825Z,54.64
2023-04-15T16:03:06.763Z,54.88
2023-04-15T16:05:38.691Z,54.98
2023-04-15T16:08:06.873Z,55.19
2023-04-15T16:10:35.115Z,55.21
2023-04-15T16:13:05.606Z,55.10
2023-04-15T16:15:34.615Z,55.30
2023-04-15T16:18:03.245Z,55.64
2023-04-15T16:20:31.639Z,55.79
2023-04-15T16:22:59.756Z,56.13
2023-04-15T16:25:27.864Z,56.30
2023-04-15T16:28:05.591Z,56.42
2023-04-15T16:30:44.086Z,56.51
2023-04-15T16:33:12.120Z,56.53
2023-04-15T16:35:40.217Z,56.23
2023-04-15T16:38:08.257Z,56.50
2023-04-15T16:40:37.688Z,56.87
2023-04-15T16:43:08.254Z,57.15
2023-04-15T16:45:36.283Z,57.53
2023-04-15T16:48:04.596Z,57.61
2023-04-15T16:50:32.781Z,57.92
2023-04-15T16:53:01.696Z,58.30
2023-04-15T16:55:29.784Z,58.11
2023-04-15T16:58:01.642Z,58.42
2023-04-15T17:00:33.107Z,58.48
2023-04-15T17:03:01.705Z,58.89
2023-04-15T17:05:32.913Z,59.31
2023-04-15T17:08:00.864Z,60.14
2023-04-15T17:10:29.201Z,59.83
2023-04-15T17:12:58.210Z,60.76
2023-04-15T17:15:27.494Z,61.11
2023-04-15T17:17:55.743Z,61.22
2023-04-15T17:20:26.618Z,61.17
2023-04-15T17:22:54.858Z,61.28
2023-04-15T17:25:23.313Z,61.21
2023-04-15T17:27:51.343Z,62.16
2023-04-15T17:30:19.541Z,62.25
2023-04-15T17:32:47.652Z,61.94
2023-04-15T17:35:15.765Z,62.42
2023-04-15T17:37:43.876Z,62.90
2023-04-15T17:40:12.438Z,62.79
2023-04-15T17:42:41.418Z,63.16
2023-04-15T17:45:09.830Z,63.98
2023-04-15T17:47:38.198Z,64.06
2023-04-15T17:50:10.179Z,64.23
2023-04-15T17:52:41.631Z,65.22
2023-04-15T17:55:09.782Z,64.78
2023-04-15T17:57:37.897Z,65.26
2023-04-15T18:00:11.702Z,66.30
2023-04-15T18:02:42.482Z,66.53
2023-04-15T18:05:10.835Z,67.06
2023-04-15T18:07:39.430Z,67.06
2023-04-15T18:10:08.816Z,67.29
2023-04-15T18:12:36.700Z,67.85
2023-04-15T18:15:07.356Z,68.07
2023-04-15T18:17:35.897Z,70.19
2023-04-15T18:20:04.003Z,71.05
2023-04-15T18:22:34.226Z,70.60
2023-04-15T18:25:04.836Z,72.38
2023-04-15T18:27:34.068Z,72.12
2023-04-15T18:30:02.133Z,72.17
2023-04-15T18:32:32.915Z,72.43
2023-04-15T18:35:00.935Z,73.27
2023-04-15T18:37:29.524Z,73.35
2023-04-15T18:39:58.300Z,73.63
2023-04-15T18:42:26.227Z,75.06
2023-04-15T18:44:54.767Z,75.57
2023-04-15T18:47:24.626Z,76.40
2023-04-15T18:49:54.394Z,77.19
2023-04-15T18:52:23.171Z,77.47
2023-04-15T18:54:51.430Z,77.40
2023-04-15T18:57:22.705Z,77.86
2023-04-15T18:59:56.919Z,77.67
2023-04-15T19:02:25.021Z,77.83
2023-04-15T19:04:53.441Z,78.26
2023-04-15T19:07:22.267Z,78.10
2023-04-15T19:09:50.415Z,77.96
2023-04-15T19:12:18.413Z,77.91
2023-04-15T19:14:46.427Z,77.97
2023-04-15T19:17:14.454Z,78.14
2023-04-15T19:19:42.345Z,78.02
2023-04-15T19:22:10.623Z,77.81
2023-04-15T19:24:38.674Z,77.92
2023-04-15T19:27:06.841Z,78.21
2023-04-15T19:29:35.073Z,77.84
2023-04-15T19:32:03.139Z,78.01
2023-04-15T19:34:31.621Z,78.07
2023-04-15T19:36:59.682Z,78.33
2023-04-15T19:39:27.556Z,78.08
2023-04-15T19:41:56.027Z,78.30
2023-04-15T19:44:24.010Z,78.51
2023-04-15T19:46:53.232Z,78.70
2023-04-15T19:49:21.302Z,78.68
2023-04-15T19:51:52.664Z,78.90
2023-04-15T19:54:21.335Z,78.65
2023-04-15T19:56:49.405Z,78.51
2023-04-15T19:59:17.489Z,78.65
2023-04-15T20:01:45.722Z,78.88
2023-04-15T20:04:13.945Z,78.87
2023-04-15T20:06:42.119Z,78.62
2023-04-15T20:09:11.531Z,78.94
2023-04-15T20:12:44.992Z,79.41
2023-04-15T20:14:27.913Z,79.91
2023-04-15T20:16:56.366Z,80.13
2023-04-15T20:19:24.381Z,80.41
2023-04-15T20:21:54.047Z,80.44
2023-04-15T20:24:24.277Z,80.33
2023-04-15T20:26:52.389Z,80.38
2023-04-15T20:29:20.543Z,80.42
2023-04-15T20:31:48.949Z,80.72
2023-04-15T20:34:17.217Z,80.85
2023-04-15T20:36:45.285Z,80.70
2023-04-15T20:39:13.316Z,80.83
2023-04-15T20:41:41.411Z,81.01
2023-04-15T20:44:09.551Z,81.09
2023-04-15T20:46:37.867Z,81.11
2023-04-15T20:49:06.042Z,81.08
2023-04-15T20:51:37.716Z,81.25
2023-04-15T20:54:06.598Z,81.12
2023-04-15T20:56:34.523Z,81.07
2023-04-15T20:59:02.627Z,81.20
2023-04-15T21:01:30.827Z,81.23
2023-04-15T21:03:59.114Z,81.09
2023-04-15T21:06:27.929Z,81.51
2023-04-15T21:08:56.214Z,81.34
2023-04-15T21:11:43.144Z,81.46
2023-04-15T21:14:12.388Z,81.44
2023-04-15T21:16:41.014Z,81.63
2023-04-15T21:19:11.516Z,81.57
2023-04-15T21:21:39.789Z,81.83
2023-04-15T21:24:07.879Z,82.09
2023-04-15T21:26:36.312Z,82.33
2023-04-15T21:29:04.854Z,82.67
2023-04-15T21:31:33.277Z,82.77
2023-04-15T21:34:01.230Z,83.23
2023-04-15T21:36:29.204Z,83.41
2023-04-15T21:38:57.283Z,83.53
2023-04-15T21:41:26.017Z,83.58
2023-04-15T21:43:54.082Z,83.64
2023-04-15T21:46:25.581Z,83.79
2023-04-15T21:49:00.865Z,83.86
2023-04-15T21:51:28.861Z,83.86
2023-04-15T21:53:56.990Z,84.04
2023-04-15T21:56:25.874Z,84.30
2023-04-15T21:58:57.031Z,84.28
2023-04-15T22:01:26.233Z,84.43
2023-04-15T22:03:54.457Z,84.60
2023-04-15T22:06:22.750Z,84.67
2023-04-15T22:08:57.022Z,84.65
2023-04-15T22:11:31.146Z,84.89
2023-04-15T22:13:59.591Z,85.23
2023-04-15T22:16:28.508Z,85.49
2023-04-15T22:18:56.762Z,85.85
2023-04-15T22:21:24.985Z,86.15
2023-04-15T22:23:53.311Z,86.30
2023-04-15T22:26:41.350Z,86.61
2023-04-15T22:29:09.868Z,86.39
2023-04-15T22:31:37.858Z,86.36
2023-04-15T22:34:05.846Z,86.30
2023-04-15T22:36:34.156Z,86.37
2023-04-15T22:39:02.336Z,86.47
2023-04-15T22:41:30.328Z,86.32
2023-04-15T22:43:58.396Z,86.21
2023-04-15T22:46:26.419Z,86.18
2023-04-15T22:48:54.414Z,86.26
2023-04-15T22:51:23.870Z,86.37
2023-04-15T22:53:51.880Z,86.37
2023-04-15T22:56:21.336Z,86.15
2023-04-15T22:58:50.756Z,86.04
2023-04-15T23:01:19.233Z,86.12
2023-04-15T23:03:55.712Z,86.05
2023-04-15T23:06:25.274Z,85.95
2023-04-15T23:08:54.011Z,85.67
2023-04-15T23:11:22.050Z,85.63
2023-04-15T23:13:50.814Z,85.53
2023-04-15T23:16:19.030Z,85.41
2023-04-15T23:18:47.054Z,85.32
2023-04-15T23:21:15.141Z,85.43
2023-04-15T23:23:43.229Z,85.32
2023-04-15T23:26:11.667Z,85.20
2023-04-15T23:28:39.657Z,85.09
2023-04-15T23:31:07.699Z,85.14
2023-04-15T23:33:35.745Z,84.90
2023-04-15T23:36:07.723Z,84.68
2023-04-15T23:38:35.733Z,84.16
2023-04-15T23:41:03.848Z,84.12
2023-04-15T23:43:31.864Z,84.11
2023-04-15T23:45:59.761Z,84.05
2023-04-15T23:48:27.759Z,83.93
2023-04-15T23:50:56.140Z,83.75
2023-04-15T23:53:24.118Z,83.87
2023-04-15T23:55:52.080Z,84.18
2023-04-15T23:58:20.037Z,84.17
